Time;durP1;ratioP1;P1;durP2;ratioP2;P2;SDS_P1;SDS_P2;PMS_P1;PMS_P2;Temp;Humidity;BMP_temperature;BMP_pressure;BME280_temperature;BME280_humidity;BME280_pressure;Samples;Min_cycle;Max_cycle;Signal;HPM_P1;HPM_P2
2023/05/01 00:02:17;;;;;;;12.50;9.95;;;10.50;1.00;;;;;;7367990;19;20019;-72
2023/05/01 00:04:47;;;;;;;12.27;9.10;;;10.50;1.00;;;;;;7368711;19;20389;-72
2023/05/01 00:07:17;;;;;;;15.18;9.50;;;10.50;1.00;;;;;;7370383;19;20467;-72
2023/05/01 00:09:47;;;;;;;13.70;10.18;;;10.50;1.00;;;;;;7390194;19;20022;-72
2023/05/01 00:12:20;;;;;;;12.38;9.15;;;10.40;1.00;;;;;;7368919;19;20009;-72
2023/05/01 00:14:50;;;;;;;12.63;9.68;;;10.40;1.00;;;;;;7367483;19;20007;-72
2023/05/01 00:17:21;;;;;;;12.38;10.52;;;10.30;1.00;;;;;;7369329;19;20014;-72
2023/05/01 00:19:53;;;;;;;11.85;9.90;;;10.30;1.00;;;;;;7368461;19;20036;-72
2023/05/01 00:22:24;;;;;;;12.98;10.50;;;10.40;1.00;;;;;;7369462;19;20010;-71
2023/05/01 00:24:53;;;;;;;14.10;10.40;;;10.30;1.00;;;;;;7389634;19;20011;-72
2023/05/01 00:27:26;;;;;;;12.40;10.80;;;10.30;1.00;;;;;;7367047;19;20030;-71
2023/05/01 00:29:56;;;;;;;12.63;10.05;;;10.10;1.00;;;;;;7367346;19;20010;-71
2023/05/01 00:32:26;;;;;;;11.00;9.85;;;10.00;1.00;;;;;;7368345;19;20402;-72
2023/05/01 00:34:56;;;;;;;12.10;10.50;;;10.00;1.00;;;;;;7367753;19;20010;-72
2023/05/01 00:37:26;;;;;;;13.32;10.25;;;9.90;1.00;;;;;;7369266;19;20458;-72
2023/05/01 00:39:56;;;;;;;16.13;9.93;;;9.90;1.00;;;;;;7389263;19;20011;-72
2023/05/01 00:42:29;;;;;;;11.35;9.98;;;10.00;1.00;;;;;;7367150;19;20038;-70
2023/05/01 00:44:59;;;;;;;13.60;10.15;;;9.90;1.00;;;;;;7367458;19;20010;-71
2023/05/01 00:47:29;;;;;;;13.48;10.52;;;9.90;1.00;;;;;;7367765;19;20759;-71
2023/05/01 00:49:59;;;;;;;14.05;10.20;;;10.00;1.00;;;;;;7367469;19;20024;-72
2023/05/01 00:52:29;;;;;;;13.15;10.68;;;10.00;1.00;;;;;;7368040;19;20459;-72
2023/05/01 00:54:59;;;;;;;14.48;10.55;;;10.00;1.00;;;;;;7389420;19;20477;-72
2023/05/01 00:57:32;;;;;;;12.88;9.88;;;10.00;1.00;;;;;;7368208;19;20102;-72
2023/05/01 01:00:02;;;;;;;12.02;10.40;;;10.00;1.00;;;;;;7366440;19;20533;-72
2023/05/01 01:02:33;;;;;;;11.85;9.70;;;9.90;1.00;;;;;;7365596;19;20570;-72
2023/05/01 01:05:04;;;;;;;12.20;10.45;;;9.90;1.00;;;;;;7367362;19;20038;-72
2023/05/01 01:07:41;;;;;;;11.25;9.25;;;9.80;1.00;;;;;;7367780;19;20026;-72
2023/05/01 01:10:21;;;;;;;12.63;9.80;;;9.80;1.00;;;;;;7388278;19;20514;-71
2023/05/01 01:13:03;;;;;;;15.25;10.30;;;9.80;1.10;;;;;;7366649;19;20031;-70
2023/05/01 01:15:38;;;;;;;14.63;10.07;;;9.90;2.30;;;;;;7367125;19;20015;-71
2023/05/01 01:18:14;;;;;;;13.30;9.55;;;9.80;1.90;;;;;;7366618;19;20006;-72
2023/05/01 01:20:48;;;;;;;15.25;10.75;;;9.60;3.30;;;;;;7367533;19;20031;-72
2023/05/01 01:23:43;;;;;;;13.18;10.75;;;9.70;4.70;;;;;;7366145;19;20006;-71
2023/05/01 01:26:34;;;;;;;12.80;10.70;;;9.70;4.60;;;;;;7367453;19;20010;-71
2023/05/01 01:29:29;;;;;;;12.52;10.68;;;9.80;4.70;;;;;;7367389;19;20554;-72
2023/05/01 01:32:10;;;;;;;13.73;10.55;;;9.80;3.60;;;;;;7367481;19;20335;-72
2023/05/01 01:34:49;;;;;;;12.65;10.60;;;9.70;3.60;;;;;;7365455;19;20015;-72
2023/05/01 01:37:22;;;;;;;12.93;10.55;;;9.80;4.50;;;;;;7366468;19;20003;-70
2023/05/01 01:39:58;;;;;;;15.18;11.15;;;9.70;4.80;;;;;;7391805;19;20007;-70
2023/05/01 01:42:36;;;;;;;14.50;10.77;;;9.70;5.30;;;;;;7371495;19;20458;-71
2023/05/01 01:45:13;;;;;;;13.00;10.40;;;9.70;5.70;;;;;;7372917;19;20080;-71
2023/05/01 01:47:44;;;;;;;13.18;11.20;;;9.60;5.30;;;;;;7374404;19;20014;-71
2023/05/01 01:50:20;;;;;;;15.90;11.52;;;9.60;7.30;;;;;;7372420;19;20344;-72
2023/05/01 01:52:51;;;;;;;14.15;10.68;;;9.70;5.90;;;;;;7373585;19;20017;-72
2023/05/01 01:55:26;;;;;;;13.07;10.68;;;9.70;4.10;;;;;;7373181;19;20074;-70
2023/05/01 01:57:57;;;;;;;13.15;11.27;;;9.80;3.60;;;;;;7395660;19;20015;-73
2023/05/01 02:00:28;;;;;;;12.15;10.73;;;9.80;3.80;;;;;;7370642;19;20434;-72
2023/05/01 02:03:01;;;;;;;12.82;11.10;;;9.60;5.50;;;;;;7372551;19;20102;-72
2023/05/01 02:05:36;;;;;;;12.02;10.20;;;9.50;6.00;;;;;;7372911;19;20007;-72
2023/05/01 02:08:07;;;;;;;14.95;11.32;;;9.50;6.60;;;;;;7374360;19;20466;-72
2023/05/01 02:10:38;;;;;;;15.00;11.38;;;9.60;6.30;;;;;;7370176;19;20118;-71
2023/05/01 02:13:08;;;;;;;18.52;11.45;;;9.60;5.90;;;;;;7394081;19;20092;-72
2023/05/01 02:15:41;;;;;;;15.02;11.65;;;9.60;6.20;;;;;;7372188;19;20475;-72
2023/05/01 02:18:11;;;;;;;14.05;10.95;;;9.60;5.90;;;;;;7373249;19;20078;-72
2023/05/01 02:20:45;;;;;;;15.63;11.60;;;9.70;6.10;;;;;;7371639;19;20006;-72
2023/05/01 02:23:15;;;;;;;14.55;12.07;;;9.80;5.30;;;;;;7372065;19;20014;-72
2023/05/01 02:25:47;;;;;;;12.20;10.88;;;9.70;4.90;;;;;;7371392;19;20021;-72
2023/05/01 02:28:22;;;;;;;13.52;10.57;;;9.60;6.40;;;;;;7373866;19;20010;-72
2023/05/01 02:30:52;;;;;;;14.27;11.48;;;9.70;7.20;;;;;;7392171;19;20508;-72
2023/05/01 02:33:22;;;;;;;14.27;11.32;;;9.70;8.30;;;;;;7369864;19;20018;-72
2023/05/01 02:35:55;;;;;;;15.20;11.52;;;9.70;8.30;;;;;;7372146;19;20010;-71
2023/05/01 02:38:25;;;;;;;13.05;10.90;;;9.60;7.90;;;;;;7370626;19;20029;-72
2023/05/01 02:40:58;;;;;;;15.48;11.38;;;9.60;8.30;;;;;;7368672;19;20069;-72
2023/05/01 02:43:30;;;;;;;13.48;10.85;;;9.60;8.30;;;;;;7370273;19;20043;-72
2023/05/01 02:46:01;;;;;;;14.00;11.00;;;9.60;8.30;;;;;;7394549;19;20477;-72
2023/05/01 02:48:33;;;;;;;15.50;11.13;;;9.50;8.70;;;;;;7373186;19;20016;-72
2023/05/01 02:51:10;;;;;;;13.35;10.90;;;9.60;10.60;;;;;;7368614;19;20018;-72
2023/05/01 02:53:41;;;;;;;13.07;10.23;;;9.60;9.70;;;;;;7370934;19;20017;-72
2023/05/01 02:56:11;;;;;;;14.45;10.05;;;9.60;8.30;;;;;;7372459;19;20073;-72
2023/05/01 02:58:41;;;;;;;11.60;10.40;;;9.60;7.40;;;;;;7372585;19;20009;-71
2023/05/01 03:01:11;;;;;;;12.20;9.75;;;9.60;6.80;;;;;;7391419;19;20425;-71
2023/05/01 03:03:41;;;;;;;11.30;10.00;;;9.50;6.30;;;;;;7370368;19;20716;-71
2023/05/01 03:06:14;;;;;;;10.95;9.77;;;9.50;6.30;;;;;;7371409;19;20010;-72
2023/05/01 03:08:44;;;;;;;12.45;9.40;;;9.50;6.60;;;;;;7371233;19;20018;-71
2023/05/01 03:11:14;;;;;;;11.35;9.68;;;9.50;6.70;;;;;;7370041;19;20014;-71
2023/05/01 03:13:45;;;;;;;14.95;9.63;;;9.60;7.10;;;;;;7368579;19;20014;-71
2023/05/01 03:16:15;;;;;;;9.93;8.90;;;9.60;6.70;;;;;;7372038;19;20028;-72
2023/05/01 03:18:45;;;;;;;10.85;8.85;;;9.60;5.60;;;;;;7392892;19;20015;-72
2023/05/01 03:21:17;;;;;;;10.85;8.65;;;9.60;4.40;;;;;;7369684;19;20007;-72
2023/05/01 03:23:47;;;;;;;10.93;9.38;;;9.70;3.60;;;;;;7367852;19;20512;-70
2023/05/01 03:26:17;;;;;;;11.30;8.70;;;9.70;3.00;;;;;;7371676;19;20014;-71
2023/05/01 03:28:47;;;;;;;13.05;8.85;;;9.70;2.00;;;;;;7370624;19;20006;-71
2023/05/01 03:31:17;;;;;;;11.07;9.02;;;9.90;1.00;;;;;;7370857;19;20022;-70
2023/05/01 03:33:47;;;;;;;10.05;8.48;;;9.90;1.00;;;;;;7390942;19;20010;-71
2023/05/01 03:36:20;;;;;;;9.80;8.60;;;9.90;1.00;;;;;;7368815;19;20006;-72
2023/05/01 03:38:50;;;;;;;10.32;8.73;;;9.90;1.00;;;;;;7368879;19;20078;-71
2023/05/01 03:41:20;;;;;;;11.68;8.35;;;9.90;1.00;;;;;;7369880;19;20006;-71
2023/05/01 03:43:50;;;;;;;8.88;7.93;;;9.90;1.00;;;;;;7368660;19;20017;-71
2023/05/01 03:46:20;;;;;;;9.02;8.07;;;9.90;1.00;;;;;;7370193;19;20010;-71
2023/05/01 03:48:50;;;;;;;9.40;7.55;;;9.90;1.00;;;;;;7392264;19;20541;-71
2023/05/01 03:51:23;;;;;;;10.50;8.90;;;9.90;1.00;;;;;;7369664;19;20015;-72
2023/05/01 03:53:55;;;;;;;10.13;8.85;;;9.90;1.00;;;;;;7366823;19;20423;-71
2023/05/01 03:56:26;;;;;;;13.82;9.45;;;9.80;1.00;;;;;;7371673;19;20109;-72
2023/05/01 03:58:56;;;;;;;12.10;8.77;;;9.80;1.90;;;;;;7368206;19;20014;-71
2023/05/01 04:01:26;;;;;;;11.02;8.73;;;9.70;2.50;;;;;;7369552;19;20014;-72
2023/05/01 04:03:56;;;;;;;11.57;9.18;;;9.70;2.40;;;;;;7389330;19;20011;-72
2023/05/01 04:06:28;;;;;;;10.82;9.13;;;9.70;2.80;;;;;;7369809;19;20015;-73
2023/05/01 04:08:58;;;;;;;11.50;8.98;;;9.60;3.10;;;;;;7368892;19;20046;-71
2023/05/01 04:11:28;;;;;;;11.88;8.98;;;9.60;3.50;;;;;;7368750;19;20043;-71
2023/05/01 04:13:58;;;;;;;11.70;9.13;;;9.60;2.70;;;;;;7367407;19;20374;-70
2023/05/01 04:16:28;;;;;;;9.88;8.63;;;9.60;2.80;;;;;;7369851;19;20010;-71
2023/05/01 04:18:58;;;;;;;9.52;8.50;;;9.70;1.30;;;;;;7389543;19;20031;-72
2023/05/01 04:21:31;;;;;;;10.85;7.97;;;9.70;1.00;;;;;;7368814;19;20020;-72
2023/05/01 04:24:00;;;;;;;10.05;8.07;;;9.80;1.00;;;;;;7366322;19;20626;-72
2023/05/01 04:26:30;;;;;;;9.73;7.45;;;9.80;1.00;;;;;;7369425;19;20394;-72
2023/05/01 04:29:01;;;;;;;9.05;7.80;;;9.80;1.00;;;;;;7368817;19;20018;-71
2023/05/01 04:31:30;;;;;;;11.00;8.45;;;9.80;1.00;;;;;;7368499;19;20676;-71
2023/05/01 04:34:00;;;;;;;10.07;7.85;;;9.80;1.00;;;;;;7388507;19;20027;-71
2023/05/01 04:36:33;;;;;;;10.07;8.45;;;9.80;1.00;;;;;;7369427;19;20490;-71
2023/05/01 04:39:03;;;;;;;11.50;9.18;;;9.70;1.00;;;;;;7367878;19;20025;-72
2023/05/01 04:41:33;;;;;;;9.38;7.93;;;9.80;1.00;;;;;;7368299;19;20050;-70
2023/05/01 04:44:02;;;;;;;9.75;7.97;;;9.80;1.00;;;;;;7366823;19;20037;-71
2023/05/01 04:46:32;;;;;;;9.75;8.27;;;9.80;1.00;;;;;;7369535;19;20566;-71
2023/05/01 04:49:02;;;;;;;10.38;8.70;;;9.80;1.00;;;;;;7390278;19;20115;-71
2023/05/01 04:51:35;;;;;;;12.73;8.70;;;9.70;1.00;;;;;;7367170;19;20091;-71
2023/05/01 04:54:05;;;;;;;11.48;8.57;;;9.70;1.00;;;;;;7366838;19;20003;-71
2023/05/01 04:56:35;;;;;;;11.82;8.55;;;9.80;1.00;;;;;;7368980;19;20467;-72
2023/05/01 04:59:05;;;;;;;10.82;8.13;;;9.90;1.00;;;;;;7367664;19;20020;-72
2023/05/01 05:01:35;;;;;;;10.90;8.25;;;10.00;1.00;;;;;;7368511;19;20014;-71
2023/05/01 05:04:05;;;;;;;9.23;8.18;;;10.00;1.00;;;;;;7388676;19;20018;-71
2023/05/01 05:06:37;;;;;;;9.55;8.07;;;10.00;1.00;;;;;;7367807;19;20015;-71
2023/05/01 05:09:07;;;;;;;10.70;8.20;;;10.00;1.00;;;;;;7367304;19;20015;-72
2023/05/01 05:11:37;;;;;;;10.82;8.63;;;10.00;1.00;;;;;;7366729;19;20018;-71
2023/05/01 05:14:07;;;;;;;10.38;7.75;;;10.10;1.00;;;;;;7368944;19;20514;-72
2023/05/01 05:16:37;;;;;;;9.75;7.65;;;9.90;1.00;;;;;;7375597;19;20600;-72
2023/05/01 05:19:07;;;;;;;9.88;7.80;;;10.00;1.00;;;;;;7395494;19;20018;-72
2023/05/01 05:21:39;;;;;;;9.93;7.82;;;10.00;1.00;;;;;;7374112;19;20026;-70
2023/05/01 05:24:09;;;;;;;12.25;8.18;;;10.10;1.00;;;;;;7373820;19;20010;-72
2023/05/01 05:26:39;;;;;;;9.23;7.72;;;10.20;1.00;;;;;;7374074;19;20566;-71
2023/05/01 05:29:09;;;;;;;9.30;7.70;;;10.30;1.00;;;;;;7371317;19;20026;-70
2023/05/01 05:31:39;;;;;;;8.60;6.97;;;10.40;1.00;;;;;;7373870;19;20093;-70
2023/05/01 05:34:10;;;;;;;7.82;6.95;;;10.40;1.00;;;;;;7395915;19;20027;-71
2023/05/01 05:36:42;;;;;;;8.27;6.60;;;10.50;1.00;;;;;;7374484;19;20393;-70
2023/05/01 05:39:12;;;;;;;9.35;7.10;;;10.50;1.00;;;;;;7372240;19;20018;-72
2023/05/01 05:41:42;;;;;;;8.80;7.30;;;10.50;1.00;;;;;;7372115;19;20544;-71
2023/05/01 05:44:12;;;;;;;8.63;7.45;;;10.60;1.00;;;;;;7373626;19;20015;-71
2023/05/01 05:46:42;;;;;;;10.98;7.00;;;10.50;1.00;;;;;;7374145;19;20705;-71
2023/05/01 05:49:12;;;;;;;8.35;7.40;;;10.50;1.00;;;;;;7395510;19;20486;-71
2023/05/01 05:51:45;;;;;;;8.82;7.93;;;10.50;1.00;;;;;;7373231;19;20470;-72
2023/05/01 05:54:14;;;;;;;10.77;7.40;;;10.50;1.00;;;;;;7372941;19;20021;-72
2023/05/01 05:56:44;;;;;;;8.27;7.03;;;10.50;1.00;;;;;;7373809;19;20029;-71
2023/05/01 05:59:14;;;;;;;11.35;7.65;;;10.50;1.00;;;;;;7372023;19;20805;-71
2023/05/01 06:01:46;;;;;;;9.43;6.88;;;10.50;1.00;;;;;;7372844;19;20063;-71
2023/05/01 06:04:16;;;;;;;10.13;7.00;;;10.50;1.00;;;;;;7372411;19;20021;-72
2023/05/01 06:06:48;;;;;;;8.23;7.18;;;10.50;1.00;;;;;;7395448;19;20022;-72
2023/05/01 06:09:19;;;;;;;7.88;6.93;;;10.60;1.00;;;;;;7372452;19;20021;-72
2023/05/01 06:11:49;;;;;;;9.05;7.10;;;10.60;1.00;;;;;;7372664;19;20454;-72
2023/05/01 06:14:19;;;;;;;9.45;7.68;;;10.60;1.00;;;;;;7372554;19;20014;-72
2023/05/01 06:16:49;;;;;;;10.30;7.45;;;10.70;1.00;;;;;;7373826;19;20021;-72
2023/05/01 06:19:18;;;;;;;10.52;7.32;;;10.50;1.00;;;;;;7371250;19;20031;-71
2023/05/01 06:21:51;;;;;;;9.38;7.00;;;10.50;1.00;;;;;;7394217;19;20525;-71
2023/05/01 06:24:21;;;;;;;9.25;7.55;;;10.50;1.00;;;;;;7369865;19;20013;-71
2023/05/01 06:26:51;;;;;;;13.73;8.10;;;10.60;1.00;;;;;;7370089;19;20374;-71
2023/05/01 06:29:21;;;;;;;9.95;7.43;;;10.60;1.00;;;;;;7371718;19;20010;-70
2023/05/01 06:31:50;;;;;;;10.40;7.22;;;10.70;1.00;;;;;;7372400;19;20042;-71
2023/05/01 06:34:20;;;;;;;8.98;8.05;;;10.80;1.00;;;;;;7372321;19;20030;-71
2023/05/01 06:36:53;;;;;;;9.40;7.80;;;10.80;1.00;;;;;;7394902;19;20366;-72
2023/05/01 06:39:23;;;;;;;8.10;6.60;;;10.80;1.00;;;;;;7370131;19;20013;-72
2023/05/01 06:41:53;;;;;;;7.88;6.60;;;10.90;1.00;;;;;;7370861;19;20097;-70
2023/05/01 06:44:23;;;;;;;7.63;6.20;;;11.00;1.00;;;;;;7372262;19;20531;-71
2023/05/01 06:46:52;;;;;;;9.18;6.47;;;11.10;1.00;;;;;;7373222;19;20375;-72
2023/05/01 06:49:22;;;;;;;8.27;5.82;;;11.30;1.00;;;;;;7371264;19;20096;-72
2023/05/01 06:51:55;;;;;;;6.45;5.85;;;11.40;1.00;;;;;;7393106;19;20114;-70
2023/05/01 06:54:25;;;;;;;7.13;5.35;;;11.50;1.00;;;;;;7371616;19;20045;-72
2023/05/01 06:56:55;;;;;;;6.93;5.50;;;11.60;1.00;;;;;;7372149;19;20014;-70
2023/05/01 06:59:25;;;;;;;6.68;5.80;;;11.70;1.00;;;;;;7370351;19;20014;-71
2023/05/01 07:01:55;;;;;;;7.65;6.00;;;11.70;1.00;;;;;;7370200;19;20021;-71
2023/05/01 07:04:25;;;;;;;6.78;5.63;;;11.80;1.00;;;;;;7371567;19;20023;-71
2023/05/01 07:06:57;;;;;;;9.63;5.53;;;11.80;1.00;;;;;;7394109;19;20025;-71
2023/05/01 07:09:27;;;;;;;6.53;5.65;;;11.90;1.00;;;;;;7369943;19;20015;-72
2023/05/01 07:11:57;;;;;;;6.85;5.72;;;11.90;1.00;;;;;;7370341;19;20018;-72
2023/05/01 07:14:27;;;;;;;7.95;5.65;;;12.10;1.00;;;;;;7369725;19;20010;-72
2023/05/01 07:16:57;;;;;;;6.72;5.32;;;11.90;1.00;;;;;;7371105;19;20018;-71
2023/05/01 07:19:27;;;;;;;6.82;5.57;;;11.90;1.00;;;;;;7368604;19;20062;-72
2023/05/01 07:22:00;;;;;;;6.95;5.07;;;12.00;1.00;;;;;;7391840;19;20093;-70
2023/05/01 07:24:30;;;;;;;6.70;6.00;;;12.20;1.00;;;;;;7369480;19;20010;-71
2023/05/01 07:27:00;;;;;;;9.25;5.40;;;12.20;1.00;;;;;;7371435;19;20033;-71
2023/05/01 07:29:29;;;;;;;5.90;5.10;;;12.00;1.00;;;;;;7369097;19;20340;-70
2023/05/01 07:32:00;;;;;;;7.35;5.45;;;12.20;1.00;;;;;;7369708;19;20007;-71
2023/05/01 07:34:30;;;;;;;7.50;5.60;;;12.30;1.00;;;;;;7369608;19;20078;-71
2023/05/01 07:37:03;;;;;;;10.57;5.72;;;12.40;1.00;;;;;;7392217;19;20003;-72
2023/05/01 07:39:33;;;;;;;7.50;5.53;;;12.50;1.00;;;;;;7368453;19;20042;-71
2023/05/01 07:42:03;;;;;;;7.63;5.50;;;12.40;1.00;;;;;;7369053;19;20059;-70
2023/05/01 07:44:33;;;;;;;8.30;5.80;;;12.40;1.00;;;;;;7369650;19;20041;-71
2023/05/01 07:47:07;;;;;;;6.78;5.60;;;12.30;1.00;;;;;;7370474;19;20373;-71
2023/05/01 07:49:38;;;;;;;7.75;6.43;;;12.10;1.00;;;;;;7369635;19;20022;-70
2023/05/01 07:52:11;;;;;;;9.15;5.90;;;12.20;1.00;;;;;;7391755;19;20039;-71
2023/05/01 07:54:40;;;;;;;8.07;6.15;;;12.30;1.00;;;;;;7369655;19;20038;-70
2023/05/01 07:57:10;;;;;;;7.45;6.00;;;12.30;1.00;;;;;;7369757;19;20006;-70
2023/05/01 07:59:40;;;;;;;7.43;6.20;;;12.50;1.00;;;;;;7368496;19;20014;-71
2023/05/01 08:02:10;;;;;;;7.90;6.22;;;12.70;1.00;;;;;;7368118;19;20377;-71
2023/05/01 08:04:40;;;;;;;8.32;6.45;;;12.40;1.00;;;;;;7369340;19;20537;-70
2023/05/01 08:07:13;;;;;;;9.00;6.18;;;12.50;1.00;;;;;;7391685;19;20011;-72
2023/05/01 08:09:44;;;;;;;7.78;5.95;;;12.70;1.00;;;;;;7368173;19;20470;-72
2023/05/01 08:12:14;;;;;;;6.57;5.97;;;12.80;1.00;;;;;;7368759;19;20010;-70
2023/05/01 08:14:44;;;;;;;8.32;6.95;;;12.90;1.00;;;;;;7369048;19;20034;-71
2023/05/01 08:17:14;;;;;;;7.60;6.57;;;13.00;1.00;;;;;;7369036;19;20375;-72
2023/05/01 08:19:44;;;;;;;7.57;5.88;;;13.00;1.00;;;;;;7368179;19;20006;-72
2023/05/01 08:22:16;;;;;;;7.80;6.40;;;13.00;1.00;;;;;;7374069;19;20493;-71
2023/05/01 08:24:46;;;;;;;6.60;5.90;;;13.10;1.00;;;;;;7390301;19;20869;-71
2023/05/01 08:27:16;;;;;;;8.73;5.95;;;12.90;1.00;;;;;;7368190;19;20696;-72
2023/05/01 08:29:46;;;;;;;7.70;6.55;;;13.00;1.00;;;;;;7367727;19;20017;-72
2023/05/01 08:32:16;;;;;;;8.48;6.80;;;13.30;1.00;;;;;;7367409;19;20470;-72
2023/05/01 08:34:46;;;;;;;6.82;6.13;;;12.90;1.00;;;;;;7368333;19;20017;-71
2023/05/01 08:37:19;;;;;;;8.30;6.80;;;13.30;1.00;;;;;;7369994;19;20011;-71
2023/05/01 08:39:49;;;;;;;8.23;6.70;;;13.50;1.00;;;;;;7389515;19;20041;-72
2023/05/01 08:42:20;;;;;;;9.98;6.75;;;13.60;1.00;;;;;;7366909;19;20082;-71
2023/05/01 08:44:50;;;;;;;8.15;7.20;;;13.60;1.00;;;;;;7368225;19;20017;-71
2023/05/01 08:47:20;;;;;;;8.73;6.72;;;13.40;1.00;;;;;;7368492;19;20015;-71
2023/05/01 08:49:53;;;;;;;8.35;7.45;;;13.50;1.00;;;;;;7370588;19;20014;-71
2023/05/01 08:52:30;;;;;;;9.00;7.00;;;14.00;1.00;;;;;;7374514;19;20028;-71
2023/05/01 08:55:01;;;;;;;8.48;7.57;;;13.90;1.00;;;;;;7397242;19;20025;-71
2023/05/01 08:57:33;;;;;;;7.95;6.68;;;14.00;1.00;;;;;;7375526;19;20128;-71
2023/05/01 09:00:06;;;;;;;8.07;7.28;;;14.10;1.00;;;;;;7373597;19;20073;-70
2023/05/01 09:02:38;;;;;;;7.80;6.82;;;14.50;1.00;;;;;;7373754;19;20011;-72
2023/05/01 09:05:09;;;;;;;8.20;7.40;;;14.60;1.00;;;;;;7374054;19;20014;-71
2023/05/01 09:07:44;;;;;;;10.27;7.90;;;14.30;1.00;;;;;;7375739;19;20011;-72
2023/05/01 09:10:16;;;;;;;8.90;7.13;;;14.30;1.00;;;;;;7376048;19;20099;-72
2023/05/01 09:12:50;;;;;;;9.68;7.05;;;14.70;1.00;;;;;;7394525;19;20035;-72
2023/05/01 09:15:20;;;;;;;8.32;7.05;;;14.80;1.00;;;;;;7373287;19;20017;-72
2023/05/01 09:17:50;;;;;;;7.85;7.05;;;14.60;1.00;;;;;;7375489;19;20596;-72
2023/05/01 09:20:22;;;;;;;8.50;6.68;;;14.60;1.00;;;;;;7373890;19;20062;-71
2023/05/01 09:22:55;;;;;;;10.48;7.38;;;14.70;1.00;;;;;;7373705;19;20101;-71
2023/05/01 09:25:25;;;;;;;7.60;6.90;;;14.80;1.00;;;;;;7374058;19;20017;-72
2023/05/01 09:27:56;;;;;;;7.60;6.80;;;14.80;1.00;;;;;;7396851;19;20011;-71
2023/05/01 09:30:34;;;;;;;9.32;6.90;;;14.90;1.00;;;;;;7372222;19;20034;-72
2023/05/01 09:33:09;;;;;;;7.60;6.80;;;15.00;1.00;;;;;;7373073;19;20010;-72
2023/05/01 09:35:55;;;;;;;7.55;6.65;;;15.30;1.00;;;;;;7372371;19;20018;-72
2023/05/01 09:38:29;;;;;;;10.18;7.15;;;15.70;1.00;;;;;;7374944;19;20470;-72
2023/05/01 09:41:06;;;;;;;7.40;6.70;;;15.60;1.00;;;;;;7371636;19;20389;-72
2023/05/01 09:43:36;;;;;;;9.55;6.70;;;15.60;1.00;;;;;;7373237;19;20030;-72
2023/05/01 09:46:09;;;;;;;11.40;7.22;;;15.20;1.00;;;;;;7396496;19;20010;-72
2023/05/01 09:48:40;;;;;;;7.45;6.55;;;15.30;1.00;;;;;;7375023;19;20028;-72
2023/05/01 09:51:24;;;;;;;7.65;6.95;;;15.10;1.00;;;;;;7371945;19;20010;-70
2023/05/01 09:53:57;;;;;;;7.43;6.68;;;14.80;1.00;;;;;;7373766;19;20093;-69
2023/05/01 09:56:28;;;;;;;7.78;6.97;;;15.30;1.00;;;;;;7372762;19;20082;-72
2023/05/01 09:59:00;;;;;;;9.45;6.80;;;15.70;1.00;;;;;;7372361;19;20035;-71
2023/05/01 10:01:40;;;;;;;8.43;6.68;;;15.80;1.00;;;;;;7371108;19;20026;-72
2023/05/01 10:04:11;;;;;;;8.65;7.00;;;15.70;1.00;;;;;;7394935;19;20038;-70
2023/05/01 10:06:42;;;;;;;7.93;7.07;;;15.90;1.00;;;;;;7374022;19;20541;-72
2023/05/01 10:09:29;;;;;;;7.88;6.55;;;16.00;1.00;;;;;;7371119;19;20026;-72
2023/05/01 10:11:59;;;;;;;10.60;7.78;;;15.80;1.00;;;;;;7372046;19;20020;-72
2023/05/01 10:14:32;;;;;;;8.30;7.03;;;15.60;1.00;;;;;;7372380;19;20034;-71
2023/05/01 10:17:02;;;;;;;8.15;6.85;;;16.00;1.00;;;;;;7374995;19;20038;-71
2023/05/01 10:19:32;;;;;;;9.73;6.80;;;15.80;1.00;;;;;;7372495;19;20032;-71
2023/05/01 10:22:02;;;;;;;8.05;6.75;;;15.70;1.00;;;;;;7392888;19;20011;-72
2023/05/01 10:24:34;;;;;;;9.23;7.72;;;15.80;1.00;;;;;;7370889;19;20076;-71
2023/05/01 10:27:06;;;;;;;8.52;6.88;;;16.00;1.00;;;;;;7373152;19;20463;-71
2023/05/01 10:29:38;;;;;;;7.35;6.65;;;16.00;1.00;;;;;;7370071;19;20782;-72
2023/05/01 10:32:09;;;;;;;12.98;6.43;;;16.30;1.00;;;;;;7372693;19;20002;-71
2023/05/01 10:34:43;;;;;;;6.68;5.97;;;16.10;1.00;;;;;;7371241;19;20021;-69
2023/05/01 10:37:17;;;;;;;7.88;6.95;;;15.90;1.00;;;;;;7386204;19;20193;-73
2023/05/01 10:39:49;;;;;;;8.65;6.68;;;15.60;1.00;;;;;;7392487;19;20014;-72
2023/05/01 10:42:19;;;;;;;8.07;6.25;;;15.60;1.00;;;;;;7368654;19;20379;-72
2023/05/01 10:44:49;;;;;;;6.78;6.05;;;15.50;1.00;;;;;;7372222;19;20018;-72
2023/05/01 10:47:47;;;;;;;8.25;6.65;;;15.50;1.00;;;;;;7371931;19;20015;-71
2023/05/01 10:50:18;;;;;;;7.38;6.57;;;15.80;1.00;;;;;;7370914;19;20038;-71
2023/05/01 10:53:18;;;;;;;7.30;6.60;;;15.80;1.00;;;;;;7370950;19;20486;-72
2023/05/01 10:55:52;;;;;;;6.82;6.22;;;15.90;1.00;;;;;;7372640;19;20014;-72
2023/05/01 10:58:52;;;;;;;7.55;6.60;;;15.80;1.00;;;;;;7371496;19;20040;-72
2023/05/01 11:01:33;;;;;;;9.40;6.72;;;16.00;1.00;;;;;;7370651;19;20014;-72
2023/05/01 11:04:07;;;;;;;7.18;6.47;;;15.90;1.00;;;;;;7392690;19;20021;-72
2023/05/01 11:06:37;;;;;;;8.57;6.90;;;16.20;1.00;;;;;;7369354;19;20522;-70
2023/05/01 11:09:38;;;;;;;9.00;6.80;;;15.80;1.00;;;;;;7370190;19;20023;-72
2023/05/01 11:12:12;;;;;;;7.72;6.93;;;16.10;1.00;;;;;;7368762;19;20019;-72
2023/05/01 11:15:04;;;;;;;7.90;6.72;;;15.60;1.00;;;;;;7370883;19;20007;-72
2023/05/01 11:17:49;;;;;;;9.07;6.15;;;16.00;1.00;;;;;;7371924;19;20010;-72
2023/05/01 11:20:52;;;;;;;8.55;7.35;;;16.20;1.00;;;;;;7370874;19;20011;-73
2023/05/01 11:23:24;;;;;;;7.53;6.45;;;16.20;1.00;;;;;;7368304;19;20014;-72
2023/05/01 11:26:06;;;;;;;9.05;6.95;;;15.90;1.00;;;;;;7371269;19;20132;-71
2023/05/01 11:28:41;;;;;;;7.68;6.65;;;16.20;1.00;;;;;;7370810;19;20027;-72
2023/05/01 11:31:11;;;;;;;8.07;6.82;;;16.70;1.00;;;;;;7389244;19;20010;-72
2023/05/01 11:33:41;;;;;;;7.20;6.50;;;16.60;1.00;;;;;;7370137;19;20356;-71
2023/05/01 11:36:12;;;;;;;7.63;6.82;;;16.50;1.00;;;;;;7371051;19;20047;-72
2023/05/01 11:38:51;;;;;;;7.05;6.00;;;16.20;1.00;;;;;;7370110;19;20024;-72
2023/05/01 11:41:22;;;;;;;7.28;6.55;;;16.80;1.00;;;;;;7367841;19;20015;-72
2023/05/01 11:43:56;;;;;;;9.43;6.82;;;16.00;1.00;;;;;;7369480;19;20474;-72
2023/05/01 11:46:27;;;;;;;7.22;6.53;;;16.10;1.00;;;;;;7370922;19;20031;-71
2023/05/01 11:48:57;;;;;;;8.68;6.80;;;15.80;1.00;;;;;;7391505;19;20017;-72
2023/05/01 11:51:28;;;;;;;6.75;6.13;;;16.20;1.00;;;;;;7368629;19;20027;-72
2023/05/01 11:54:02;;;;;;;7.57;6.43;;;16.60;1.00;;;;;;7369395;19;20010;-71
2023/05/01 11:56:33;;;;;;;7.63;6.82;;;16.60;1.00;;;;;;7370457;19;20082;-72
2023/05/01 11:59:12;;;;;;;9.50;6.72;;;16.30;1.00;;;;;;7369951;19;20010;-72
2023/05/01 12:01:43;;;;;;;7.53;6.75;;;16.50;1.00;;;;;;7367002;19;20018;-71
2023/05/01 12:04:14;;;;;;;7.32;6.60;;;16.40;1.00;;;;;;7389007;19;20023;-71
2023/05/01 12:06:46;;;;;;;8.40;7.22;;;16.20;1.00;;;;;;7391561;19;20046;-72
2023/05/01 12:09:19;;;;;;;8.65;7.60;;;16.30;1.00;;;;;;7368045;19;20007;-72
2023/05/01 12:11:50;;;;;;;9.02;7.25;;;16.50;1.00;;;;;;7367606;19;20014;-72
2023/05/01 12:14:24;;;;;;;8.43;7.20;;;16.50;1.00;;;;;;7367669;19;20830;-72
2023/05/01 12:16:54;;;;;;;8.88;7.18;;;16.70;1.00;;;;;;7368963;19;20015;-73
2023/05/01 12:19:24;;;;;;;8.13;7.22;;;16.70;1.00;;;;;;7367749;19;20010;-72
2023/05/01 12:22:07;;;;;;;8.90;7.38;;;16.80;1.00;;;;;;7389575;19;20025;-72
2023/05/01 12:24:38;;;;;;;9.10;7.15;;;16.70;1.00;;;;;;7368748;19;20031;-72
2023/05/01 12:27:08;;;;;;;8.38;7.57;;;17.40;1.00;;;;;;7367646;19;20083;-72
2023/05/01 12:29:47;;;;;;;8.52;7.13;;;17.70;1.00;;;;;;7367939;19;20450;-73
2023/05/01 12:32:17;;;;;;;7.45;6.75;;;17.40;1.00;;;;;;7367614;19;20470;-72
2023/05/01 12:34:47;;;;;;;14.05;7.63;;;17.40;1.00;;;;;;7368042;19;20018;-72
2023/05/01 12:37:17;;;;;;;7.18;6.47;;;17.40;1.00;;;;;;7369906;19;20070;-72
2023/05/01 12:39:48;;;;;;;9.02;7.07;;;17.00;1.00;;;;;;7389489;19;20014;-71
2023/05/01 12:42:18;;;;;;;7.05;6.35;;;16.70;1.00;;;;;;7365233;19;20124;-72
2023/05/01 12:45:00;;;;;;;8.65;7.07;;;17.20;1.00;;;;;;7369514;19;20007;-72
2023/05/01 12:47:38;;;;;;;8.18;6.82;;;17.10;1.00;;;;;;7367473;19;20459;-72
2023/05/01 12:50:10;;;;;;;8.35;6.93;;;16.90;1.00;;;;;;7365985;19;20011;-72
2023/05/01 12:52:40;;;;;;;9.70;6.30;;;16.80;1.00;;;;;;7366774;19;20010;-72
2023/05/01 12:55:11;;;;;;;8.52;7.10;;;16.60;1.00;;;;;;7389353;19;20009;-72
2023/05/01 12:57:54;;;;;;;7.75;6.95;;;16.40;1.00;;;;;;7367582;19;20033;-71
2023/05/01 13:00:26;;;;;;;10.48;7.45;;;16.60;1.00;;;;;;7364750;19;20011;-72
2023/05/01 13:02:56;;;;;;;9.43;7.30;;;16.50;1.00;;;;;;7365401;19;20032;-72
2023/05/01 13:05:26;;;;;;;7.82;6.78;;;16.80;1.00;;;;;;7367029;19;20014;-73
2023/05/01 13:07:57;;;;;;;8.43;7.53;;;16.70;1.00;;;;;;7368179;19;20490;-72
2023/05/01 13:10:33;;;;;;;9.20;7.10;;;16.30;1.00;;;;;;7366513;19;20483;-72
2023/05/01 13:13:03;;;;;;;9.75;7.50;;;16.30;1.00;;;;;;7388364;19;20466;-72
2023/05/01 13:15:36;;;;;;;8.98;7.07;;;16.70;1.00;;;;;;7366378;19;20022;-72
2023/05/01 13:18:06;;;;;;;10.18;7.07;;;16.50;1.00;;;;;;7367605;19;20042;-72
2023/05/01 13:20:37;;;;;;;7.78;7.03;;;16.60;1.00;;;;;;7366205;19;20038;-70
2023/05/01 13:23:12;;;;;;;9.25;7.50;;;16.40;1.00;;;;;;7366770;19;20027;-72